createdAt,value
2022-11-12T00:00:59.492Z,7.00
2022-11-12T00:03:29.985Z,7.00
2022-11-12T00:06:00.088Z,6.90
2022-11-12T00:08:32.830Z,6.90
2022-11-12T00:11:04.904Z,6.80
2022-11-12T00:13:35.094Z,6.80
2022-11-12T00:16:05.790Z,6.80
2022-11-12T00:18:35.961Z,6.70
2022-11-12T00:21:06.152Z,6.70
2022-11-12T00:23:38.897Z,6.60
2022-11-12T00:26:08.999Z,6.60
2022-11-12T00:28:39.070Z,6.60
2022-11-12T00:31:14.689Z,6.60
2022-11-12T00:33:46.188Z,6.40
2022-11-12T00:36:16.295Z,6.40
2022-11-12T00:38:48.975Z,6.40
2022-11-12T00:41:19.074Z,6.50
2022-11-12T00:43:51.743Z,6.60
2022-11-12T00:46:21.800Z,6.80
2022-11-12T00:48:51.902Z,6.90
2022-11-12T00:51:28.170Z,7.00
2022-11-12T00:54:11.454Z,7.20
2022-11-12T00:56:41.621Z,7.40
2022-11-12T00:59:11.822Z,7.40
2022-11-12T01:01:42.687Z,7.40
2022-11-12T01:04:13.452Z,7.50
2022-11-12T01:06:44.518Z,7.50
2022-11-12T01:09:19.662Z,7.50
2022-11-12T01:11:50.164Z,7.50
2022-11-12T01:14:22.627Z,7.50
2022-11-12T01:16:52.774Z,7.60
2022-11-12T01:19:28.302Z,7.60
2022-11-12T01:22:03.751Z,7.60
2022-11-12T01:24:36.591Z,7.70
2022-11-12T01:27:09.810Z,7.70
2022-11-12T01:29:41.005Z,7.70
2022-11-12T01:32:11.371Z,7.60
2022-11-12T01:34:41.484Z,7.70
2022-11-12T01:37:14.042Z,7.70
2022-11-12T01:39:49.111Z,7.70
2022-11-12T01:42:29.090Z,7.70
2022-11-12T01:45:01.564Z,7.70
2022-11-12T01:47:35.457Z,7.80
2022-11-12T01:50:24.446Z,7.70
2022-11-12T01:53:01.008Z,7.80
2022-11-12T01:55:40.236Z,7.70
2022-11-12T01:58:16.106Z,7.60
2022-11-12T02:00:46.597Z,7.60
2022-11-12T02:03:24.021Z,7.50
2022-11-12T02:06:04.855Z,7.60
2022-11-12T02:08:41.294Z,7.50
2022-11-12T02:11:25.691Z,7.60
2022-11-12T02:14:08.281Z,7.60
2022-11-12T02:16:41.758Z,7.60
2022-11-12T02:19:14.730Z,7.50
2022-11-12T02:21:48.176Z,7.60
2022-11-12T02:24:39.621Z,7.50
2022-11-12T02:27:12.813Z,7.60
2022-11-12T02:29:48.925Z,7.70
2022-11-12T02:32:19.043Z,7.70
2022-11-12T02:34:51.447Z,7.70
2022-11-12T02:37:26.262Z,7.70
2022-11-12T02:39:56.359Z,7.70
2022-11-12T02:42:26.513Z,7.70
2022-11-12T02:44:56.904Z,7.60
2022-11-12T02:47:26.986Z,7.60
2022-11-12T02:49:59.563Z,7.50
2022-11-12T02:52:34.943Z,7.50
2022-11-12T02:55:05.302Z,7.40
2022-11-12T02:57:35.449Z,7.40
2022-11-12T03:00:06.741Z,7.40
2022-11-12T03:02:42.586Z,7.40
2022-11-12T03:05:13.499Z,7.40
2022-11-12T03:07:46.597Z,7.30
2022-11-12T03:10:20.145Z,7.30
2022-11-12T03:12:50.248Z,7.30
2022-11-12T03:15:20.427Z,7.20
2022-11-12T03:17:53.191Z,7.20
2022-11-12T03:20:23.879Z,7.10
2022-11-12T03:23:08.582Z,7.10
2022-11-12T03:25:39.682Z,7.00
2022-11-12T03:28:13.728Z,7.00
2022-11-12T03:30:46.084Z,6.90
2022-11-12T03:33:17.886Z,6.80
2022-11-12T03:35:48.267Z,6.70
2022-11-12T03:38:24.271Z,6.70
2022-11-12T03:40:54.627Z,6.60
2022-11-12T03:43:24.730Z,6.60
2022-11-12T03:45:54.889Z,6.60
2022-11-12T03:48:31.246Z,6.60
2022-11-12T03:51:02.297Z,6.60
2022-11-12T03:53:41.091Z,6.60
2022-11-12T03:56:11.406Z,6.60
2022-11-12T03:58:41.513Z,6.60
2022-11-12T04:01:14.769Z,6.60
2022-11-12T04:03:45.006Z,6.70
2022-11-12T04:06:27.573Z,6.60
2022-11-12T04:09:03.269Z,6.60
2022-11-12T04:11:33.440Z,6.60
2022-11-12T04:14:01.317Z,6.60
2022-11-12T04:16:44.332Z,6.50
2022-11-12T04:19:28.943Z,6.50
2022-11-12T04:22:05.784Z,6.50
2022-11-12T04:24:58.776Z,6.50
2022-11-12T04:27:31.857Z,6.40
2022-11-12T04:30:15.536Z,6.40
2022-11-12T04:32:53.359Z,6.40
2022-11-12T04:35:24.842Z,6.40
2022-11-12T04:38:01.050Z,6.40
2022-11-12T04:40:47.072Z,6.40
2022-11-12T04:43:32.242Z,6.40
2022-11-12T04:46:08.999Z,6.40
2022-11-12T04:48:39.678Z,6.70
2022-11-12T04:51:31.264Z,6.60
2022-11-12T04:54:01.424Z,6.50
2022-11-12T04:56:39.703Z,6.50
2022-11-12T04:59:11.707Z,6.40
2022-11-12T05:01:42.433Z,6.40
2022-11-12T05:04:15.855Z,6.30
2022-11-12T05:06:55.976Z,6.30
2022-11-12T05:09:31.759Z,6.30
2022-11-12T05:12:08.395Z,6.30
2022-11-12T05:14:38.559Z,6.20
2022-11-12T05:17:09.463Z,6.10
2022-11-12T05:19:40.201Z,6.10
2022-11-12T05:22:33.381Z,6.10
2022-11-12T05:25:06.548Z,6.10
2022-11-12T05:27:39.782Z,6.10
2022-11-12T05:30:14.216Z,6.10
2022-11-12T05:32:44.354Z,6.20
2022-11-12T05:35:18.741Z,6.20
2022-11-12T05:37:49.534Z,6.10
2022-11-12T05:40:22.131Z,6.10
2022-11-12T05:42:55.072Z,6.00
2022-11-12T05:45:25.232Z,6.10
2022-11-12T05:47:56.161Z,6.10
2022-11-12T05:50:34.828Z,6.10
2022-11-12T05:53:10.334Z,6.00
2022-11-12T05:55:40.536Z,6.00
2022-11-12T05:58:16.668Z,6.00
2022-11-12T06:00:46.803Z,6.00
2022-11-12T06:03:20.263Z,5.90
2022-11-12T06:05:50.313Z,6.00
2022-11-12T06:08:22.203Z,6.10
2022-11-12T06:10:53.560Z,6.00
2022-11-12T06:13:28.799Z,6.10
2022-11-12T06:15:59.905Z,6.10
2022-11-12T06:18:39.210Z,6.10
2022-11-12T06:21:25.520Z,6.00
2022-11-12T06:23:59.141Z,6.00
2022-11-12T06:26:32.057Z,6.00
2022-11-12T06:29:09.007Z,6.00
2022-11-12T06:31:40.392Z,6.00
2022-11-12T06:34:15.323Z,6.00
2022-11-12T06:36:48.745Z,5.90
2022-11-12T06:39:19.484Z,5.90
2022-11-12T06:41:50.330Z,5.90
2022-11-12T06:44:27.122Z,5.80
2022-11-12T06:47:00.160Z,5.90
2022-11-12T06:49:31.697Z,5.90
2022-11-12T06:52:15.216Z,5.90
2022-11-12T06:54:47.162Z,5.90
2022-11-12T06:57:18.308Z,5.90
2022-11-12T06:59:51.184Z,5.80
2022-11-12T07:02:21.648Z,5.80
2022-11-12T07:04:51.980Z,5.80
2022-11-12T07:07:28.027Z,5.80
2022-11-12T07:09:58.295Z,5.80
2022-11-12T07:12:28.393Z,5.90
2022-11-12T07:15:02.562Z,6.00
2022-11-12T07:17:35.501Z,6.10
2022-11-12T07:20:05.650Z,6.20
2022-11-12T07:22:37.785Z,6.30
2022-11-12T07:25:09.306Z,6.40
2022-11-12T07:27:39.382Z,6.50
2022-11-12T07:30:15.944Z,6.50
2022-11-12T07:32:51.953Z,6.50
2022-11-12T07:35:24.000Z,6.60
2022-11-12T07:37:59.385Z,6.80
2022-11-12T07:40:32.270Z,7.00
2022-11-12T07:43:09.390Z,6.90
2022-11-12T07:45:45.031Z,7.00
2022-11-12T07:48:18.382Z,7.10
2022-11-12T07:50:53.154Z,7.20
2022-11-12T07:53:23.254Z,7.40
2022-11-12T07:55:57.653Z,7.60
2022-11-12T07:58:37.760Z,8.40
2022-11-12T08:01:25.347Z,10.00
2022-11-12T08:03:55.818Z,12.10
2022-11-12T08:06:27.016Z,13.70
2022-11-12T08:08:59.195Z,15.00
2022-11-12T08:11:29.442Z,16.50
2022-11-12T08:14:00.125Z,17.70
2022-11-12T08:16:36.459Z,18.30
2022-11-12T08:19:10.298Z,18.10
2022-11-12T08:21:41.020Z,17.80
2022-11-12T08:24:11.913Z,17.80
2022-11-12T08:26:42.653Z,17.50
2022-11-12T08:29:13.770Z,17.50
2022-11-12T08:31:54.372Z,17.80
2022-11-12T08:34:27.936Z,18.60
2022-11-12T08:36:58.584Z,18.30
2022-11-12T08:39:31.404Z,19.50
2022-11-12T08:42:05.189Z,19.60
2022-11-12T08:44:41.296Z,19.90
2022-11-12T08:47:14.649Z,19.50
2022-11-12T08:49:48.489Z,18.70
2022-11-12T08:52:19.125Z,18.20
2022-11-12T08:54:49.557Z,17.70
2022-11-12T08:57:19.910Z,17.90
2022-11-12T08:59:50.170Z,18.30
2022-11-12T09:02:22.923Z,18.40
2022-11-12T09:04:56.079Z,19.30
2022-11-12T09:07:48.972Z,19.20
2022-11-12T09:10:17.359Z,19.00
2022-11-12T09:12:48.091Z,19.20
2022-11-12T09:18:16.241Z,18.20
2022-11-12T09:20:46.883Z,17.50
2022-11-12T09:23:20.271Z,17.20
2022-11-12T09:25:53.667Z,17.20
2022-11-12T09:28:23.899Z,17.60
2022-11-12T09:30:56.723Z,17.80
2022-11-12T09:33:36.029Z,18.90
2022-11-12T09:36:13.192Z,19.70
2022-11-12T09:38:43.629Z,20.60
2022-11-12T09:41:36.063Z,20.30
2022-11-12T09:44:13.617Z,19.70
2022-11-12T09:46:50.948Z,19.90
2022-11-12T09:49:31.333Z,19.90
2022-11-12T09:52:11.196Z,19.90
2022-11-12T09:54:41.618Z,19.70
2022-11-12T09:57:15.672Z,19.10
2022-11-12T09:59:49.109Z,18.80
2022-11-12T10:02:36.011Z,19.00
2022-11-12T10:05:24.541Z,19.60
2022-11-12T10:08:30.298Z,19.30
2022-11-12T10:11:16.355Z,20.20
2022-11-12T10:14:04.149Z,20.90
2022-11-12T10:16:55.751Z,21.00
2022-11-12T10:19:56.426Z,20.00
2022-11-12T10:22:55.654Z,19.90
2022-11-12T10:25:28.272Z,19.40
2022-11-12T10:27:59.162Z,19.70
2022-11-12T10:30:32.914Z,19.60
2022-11-12T10:33:03.408Z,19.40
2022-11-12T10:35:41.474Z,19.40
2022-11-12T10:38:30.288Z,19.70
2022-11-12T10:41:03.620Z,20.00
2022-11-12T10:43:37.220Z,19.60
2022-11-12T10:46:22.527Z,19.60
2022-11-12T10:49:01.002Z,20.10
2022-11-12T10:51:37.163Z,19.60
2022-11-12T10:54:32.105Z,19.90
2022-11-12T10:57:25.233Z,20.60
2022-11-12T11:00:19.095Z,20.10
2022-11-12T11:02:53.302Z,19.80
2022-11-12T11:05:37.707Z,19.10
2022-11-12T11:08:21.145Z,18.50
2022-11-12T11:11:23.635Z,18.20
2022-11-12T11:13:59.555Z,18.20
2022-11-12T11:16:32.062Z,18.00
2022-11-12T11:19:08.215Z,18.20
2022-11-12T11:22:05.394Z,18.30
2022-11-12T11:24:47.646Z,18.20
2022-11-12T11:27:36.926Z,18.60
2022-11-12T11:30:15.517Z,18.80
2022-11-12T11:33:33.816Z,18.70
2022-11-12T11:36:24.224Z,18.80
2022-11-12T11:39:05.154Z,19.50
2022-11-12T11:42:04.810Z,19.10
2022-11-12T11:44:54.149Z,19.10
2022-11-12T11:48:00.583Z,19.70
2022-11-12T11:50:37.212Z,19.80
2022-11-12T11:53:29.586Z,19.80
2022-11-12T11:56:05.599Z,19.70
2022-11-12T11:59:17.999Z,18.70
2022-11-12T12:02:46.450Z,18.10
2022-11-12T12:05:32.545Z,18.40
2022-11-12T12:08:09.159Z,18.20
2022-11-12T12:11:08.213Z,18.10
2022-11-12T12:14:01.768Z,18.10
2022-11-12T12:16:50.157Z,18.10
2022-11-12T12:19:48.873Z,17.80
2022-11-12T12:22:34.034Z,17.10
2022-11-12T12:25:18.629Z,17.30
2022-11-12T12:28:02.515Z,17.30
2022-11-12T12:30:38.528Z,17.40
2022-11-12T12:33:31.510Z,17.10
2022-11-12T12:36:11.599Z,17.30
2022-11-12T12:38:54.036Z,17.40
2022-11-12T12:41:32.726Z,17.00
2022-11-12T12:44:08.892Z,16.90
2022-11-12T12:46:47.889Z,17.20
2022-11-12T12:49:24.210Z,17.20
2022-11-12T12:52:09.468Z,16.90
2022-11-12T12:54:59.632Z,16.70
2022-11-12T12:57:37.755Z,16.50
2022-11-12T13:00:34.722Z,16.70
2022-11-12T13:03:05.130Z,16.60
2022-11-12T13:05:40.211Z,16.60
2022-11-12T13:08:29.695Z,16.40
2022-11-12T13:11:00.174Z,16.50
2022-11-12T13:13:36.868Z,16.40
2022-11-12T13:16:07.635Z,16.70
2022-11-12T13:19:07.278Z,16.70
2022-11-12T13:21:37.430Z,16.70
2022-11-12T13:24:15.826Z,16.70
2022-11-12T13:26:53.610Z,16.80
2022-11-12T13:29:45.954Z,16.80
2022-11-12T13:32:40.091Z,16.60
2022-11-12T13:35:30.474Z,16.60
2022-11-12T13:38:15.728Z,16.40
2022-11-12T13:40:58.340Z,16.40
2022-11-12T13:43:39.188Z,16.40
2022-11-12T13:46:34.263Z,16.40
2022-11-12T13:49:08.760Z,16.40
2022-11-12T13:51:45.763Z,16.30
2022-11-12T13:54:37.514Z,16.10
2022-11-12T13:57:32.380Z,16.00
2022-11-12T14:00:28.077Z,15.90
2022-11-12T14:03:03.257Z,15.70
2022-11-12T14:05:36.515Z,15.60
2022-11-12T14:08:35.500Z,15.50
2022-11-12T14:11:36.807Z,15.50
2022-11-12T14:14:26.138Z,15.50
2022-11-12T14:17:21.983Z,15.40
2022-11-12T14:20:24.949Z,15.40
2022-11-12T14:22:56.300Z,15.40
2022-11-12T14:25:33.155Z,15.30
2022-11-12T14:28:03.332Z,15.30
2022-11-12T14:30:36.075Z,15.40
2022-11-12T14:33:13.790Z,15.40
2022-11-12T14:35:44.166Z,15.40
2022-11-12T14:38:20.076Z,15.20
2022-11-12T14:40:54.076Z,15.00
2022-11-12T14:43:39.592Z,14.90
2022-11-12T14:46:27.540Z,14.90
2022-11-12T14:49:04.533Z,14.80
2022-11-12T14:51:43.671Z,14.70
2022-11-12T14:54:28.827Z,14.60
2022-11-12T14:57:01.222Z,14.50
2022-11-12T14:59:35.510Z,14.40
2022-11-12T15:02:46.081Z,14.30
2022-11-12T15:05:17.130Z,14.20
2022-11-12T15:08:00.901Z,14.10
2022-11-12T15:10:38.526Z,14.00
2022-11-12T15:13:16.154Z,13.90
2022-11-12T15:15:56.599Z,13.90
2022-11-12T15:18:33.066Z,13.80
2022-11-12T15:21:15.350Z,13.70
2022-11-12T15:23:58.710Z,13.60
2022-11-12T15:26:37.158Z,13.50
2022-11-12T15:29:25.777Z,13.40
2022-11-12T15:32:03.463Z,13.40
2022-11-12T15:34:50.448Z,13.30
2022-11-12T15:37:30.257Z,13.20
2022-11-12T15:40:06.426Z,13.10
2022-11-12T15:42:44.775Z,13.00
2022-11-12T15:45:19.919Z,13.00
2022-11-12T15:47:53.299Z,12.90
2022-11-12T15:50:27.734Z,12.90
2022-11-12T15:53:00.677Z,12.70
2022-11-12T15:55:30.910Z,12.70
2022-11-12T15:58:06.423Z,12.60
2022-11-12T16:00:40.719Z,12.50
2022-11-12T16:03:21.193Z,12.30
2022-11-12T16:05:54.074Z,12.30
2022-11-12T16:08:27.298Z,12.30
2022-11-12T16:11:00.309Z,12.20
2022-11-12T16:13:37.893Z,12.10
2022-11-12T16:16:14.675Z,12.10
2022-11-12T16:18:44.766Z,12.10
2022-11-12T16:21:20.850Z,12.10
2022-11-12T16:23:51.269Z,12.10
2022-11-12T16:26:30.803Z,12.00
2022-11-12T16:29:00.971Z,12.00
2022-11-12T16:31:31.312Z,12.00
2022-11-12T16:34:04.467Z,11.90
2022-11-12T16:36:39.816Z,11.90
2022-11-12T16:39:12.281Z,11.80
2022-11-12T16:41:42.371Z,11.80
2022-11-12T16:44:12.460Z,11.70
2022-11-12T16:46:43.922Z,11.70
2022-11-12T16:49:15.264Z,11.60
2022-11-12T16:51:48.455Z,11.60
2022-11-12T16:54:18.516Z,11.60
2022-11-12T16:56:48.697Z,11.50
2022-11-12T16:59:18.934Z,11.50
2022-11-12T17:01:49.042Z,11.50
2022-11-12T17:04:19.141Z,11.50
2022-11-12T17:06:55.455Z,11.40
2022-11-12T17:09:31.425Z,11.40
2022-11-12T17:12:02.191Z,11.30
2022-11-12T17:14:32.425Z,11.30
2022-11-12T17:17:05.657Z,11.30
2022-11-12T17:19:39.041Z,11.20
2022-11-12T17:22:20.162Z,11.20
2022-11-12T17:24:55.564Z,11.10
2022-11-12T17:27:25.674Z,11.10
2022-11-12T17:29:56.167Z,11.10
2022-11-12T17:32:36.942Z,11.00
2022-11-12T17:35:08.344Z,11.00
2022-11-12T17:37:41.055Z,11.10
2022-11-12T17:40:13.011Z,11.00
2022-11-12T17:42:46.275Z,11.00
2022-11-12T17:45:16.475Z,11.00
2022-11-12T17:47:49.643Z,11.00
2022-11-12T17:50:19.980Z,11.00
2022-11-12T17:52:52.680Z,10.90
2022-11-12T17:55:22.862Z,10.90
2022-11-12T17:57:53.002Z,10.80
2022-11-12T18:00:23.441Z,10.80
2022-11-12T18:02:53.556Z,10.80
2022-11-12T18:05:23.627Z,10.80
2022-11-12T18:07:58.499Z,10.80
2022-11-12T18:10:28.602Z,10.90
2022-11-12T18:12:59.180Z,10.80
2022-11-12T18:15:35.360Z,10.70
2022-11-12T18:18:08.392Z,10.70
2022-11-12T18:20:39.450Z,10.70
2022-11-12T18:23:19.818Z,10.70
2022-11-12T18:25:52.348Z,10.70
2022-11-12T18:28:25.456Z,10.60
2022-11-12T18:31:01.843Z,10.60
2022-11-12T18:33:31.972Z,10.50
2022-11-12T18:36:07.226Z,10.50
2022-11-12T18:38:40.378Z,10.50
2022-11-12T18:41:14.620Z,10.40
2022-11-12T18:43:44.810Z,10.40
2022-11-12T18:46:15.282Z,10.40
2022-11-12T18:48:45.422Z,10.50
2022-11-12T18:51:18.195Z,10.50
2022-11-12T18:53:51.198Z,10.50
2022-11-12T18:56:26.390Z,10.40
2022-11-12T18:58:56.530Z,10.40
2022-11-12T19:01:31.764Z,10.40
2022-11-12T19:04:10.197Z,10.40
2022-11-12T19:06:40.300Z,10.50
2022-11-12T19:09:16.148Z,10.50
2022-11-12T19:11:49.248Z,10.50
2022-11-12T19:14:19.363Z,10.40
2022-11-12T19:16:49.455Z,10.30
2022-11-12T19:19:19.765Z,10.30
2022-11-12T19:21:49.798Z,10.20
2022-11-12T19:24:22.647Z,10.20
2022-11-12T19:26:58.511Z,10.20
2022-11-12T19:29:28.628Z,10.10
2022-11-12T19:32:01.062Z,10.10
2022-11-12T19:34:34.250Z,10.00
2022-11-12T19:37:32.938Z,9.90
2022-11-12T19:39:57.124Z,10.00
2022-11-12T19:42:27.222Z,9.90
2022-11-12T19:44:57.306Z,9.80
2022-11-12T19:47:29.637Z,9.70
2022-11-12T19:50:02.061Z,9.70
2022-11-12T19:52:32.138Z,9.70
2022-11-12T19:55:08.964Z,9.70
2022-11-12T19:57:39.082Z,9.70
2022-11-12T20:00:12.043Z,9.60
2022-11-12T20:02:45.121Z,9.60
2022-11-12T20:05:15.642Z,9.60
2022-11-12T20:08:01.377Z,9.60
2022-11-12T20:10:34.100Z,9.50
2022-11-12T20:13:04.490Z,9.50
2022-11-12T20:15:34.608Z,9.50
2022-11-12T20:18:04.727Z,9.40
2022-11-12T20:20:34.815Z,9.40
2022-11-12T20:23:04.991Z,9.40
2022-11-12T20:25:37.636Z,9.40
2022-11-12T20:28:10.327Z,9.40
2022-11-12T20:30:41.293Z,9.50
2022-11-12T20:33:11.604Z,9.50
2022-11-12T20:35:41.758Z,9.50
2022-11-12T20:38:20.555Z,9.50
2022-11-12T20:41:05.630Z,9.60
2022-11-12T20:43:38.717Z,9.50
2022-11-12T20:46:09.179Z,9.50
2022-11-12T20:48:44.033Z,9.40
2022-11-12T20:51:23.862Z,9.30
2022-11-12T20:53:59.986Z,9.30
2022-11-12T20:56:34.295Z,9.30
2022-11-12T20:59:07.126Z,9.40
2022-11-12T21:01:40.652Z,9.50
2022-11-12T21:04:15.494Z,9.60
2022-11-12T21:06:48.279Z,9.60
2022-11-12T21:09:18.751Z,9.70
2022-11-12T21:11:51.469Z,9.80
2022-11-12T21:14:21.577Z,9.90
2022-11-12T21:16:52.136Z,9.90
2022-11-12T21:19:25.065Z,9.90
2022-11-12T21:21:55.225Z,9.90
2022-11-12T21:24:25.472Z,9.90
2022-11-12T21:26:58.241Z,9.90
2022-11-12T21:29:28.363Z,9.90
2022-11-12T21:31:58.516Z,9.90
2022-11-12T21:34:29.022Z,9.90
2022-11-12T21:37:01.659Z,9.90
2022-11-12T21:39:31.716Z,9.90
2022-11-12T21:42:04.444Z,10.00
2022-11-12T21:44:34.935Z,9.90
2022-11-12T21:47:05.044Z,9.90
2022-11-12T21:49:37.843Z,10.00
2022-11-12T21:52:09.394Z,10.00
2022-11-12T21:54:42.138Z,10.00
2022-11-12T21:57:18.639Z,10.00
2022-11-12T21:59:49.253Z,9.90
2022-11-12T22:02:22.471Z,9.90
2022-11-12T22:04:52.570Z,9.90
2022-11-12T22:07:22.793Z,9.90
2022-11-12T22:09:58.726Z,9.90
2022-11-12T22:12:33.565Z,9.90
2022-11-12T22:15:03.652Z,9.90
2022-11-12T22:17:36.108Z,9.80
2022-11-12T22:20:06.790Z,9.80
2022-11-12T22:22:36.989Z,9.80
2022-11-12T22:25:08.037Z,9.80
2022-11-12T22:27:43.088Z,9.70
2022-11-12T22:30:15.014Z,9.70
2022-11-12T22:32:45.139Z,9.70
2022-11-12T22:35:22.598Z,9.70
2022-11-12T22:37:52.697Z,9.60
2022-11-12T22:40:22.916Z,9.70
2022-11-12T22:43:03.942Z,9.80
2022-11-12T22:45:38.397Z,9.80
2022-11-12T22:48:10.208Z,9.80
2022-11-12T22:50:46.239Z,9.80
2022-11-12T22:53:19.945Z,9.70
2022-11-12T22:55:50.420Z,9.70
2022-11-12T22:58:23.583Z,9.70
2022-11-12T23:00:53.695Z,9.70
2022-11-12T23:03:24.160Z,9.70
2022-11-12T23:06:00.495Z,9.70
2022-11-12T23:08:32.994Z,9.70
2022-11-12T23:11:06.058Z,9.70
2022-11-12T23:13:40.257Z,9.70
2022-11-12T23:16:12.778Z,9.60
2022-11-12T23:18:46.041Z,9.60
2022-11-12T23:21:19.863Z,9.60
2022-11-12T23:23:50.243Z,9.60
2022-11-12T23:26:26.767Z,9.60
2022-11-12T23:29:07.010Z,9.60
2022-11-12T23:31:37.702Z,9.60
2022-11-12T23:34:13.230Z,9.60
2022-11-12T23:36:48.671Z,9.50
2022-11-12T23:39:19.198Z,9.60
2022-11-12T23:41:52.238Z,9.50
2022-11-12T23:44:29.571Z,9.50
2022-11-12T23:47:03.426Z,9.50
2022-11-12T23:49:37.162Z,9.50
2022-11-12T23:52:12.675Z,9.50
2022-11-12T23:54:48.992Z,9.50
2022-11-12T23:57:19.226Z,9.50
2022-11-12T23:59:55.023Z,9.50
